sensor_id;sensor_type;location;lat;lon;timestamp;P1;durP1;ratioP1;P2;durP2;ratioP2
25950;SDS011;13748;52.240;6.002;2022-07-29T00:02:24;4.20;;;2.30;;
25950;SDS011;13748;52.240;6.002;2022-07-29T00:04:56;6.83;;;2.50;;
25950;SDS011;13748;52.240;6.002;2022-07-29T00:07:23;5.40;;;2.83;;
25950;SDS011;13748;52.240;6.002;2022-07-29T00:09:50;3.73;;;2.40;;
25950;SDS011;13748;52.240;6.002;2022-07-29T00:12:22;4.67;;;2.43;;
25950;SDS011;13748;52.240;6.002;2022-07-29T00:14:55;5.30;;;2.70;;
25950;SDS011;13748;52.240;6.002;2022-07-29T00:17:23;5.73;;;2.40;;
25950;SDS011;13748;52.240;6.002;2022-07-29T00:19:51;5.93;;;2.80;;
25950;SDS011;13748;52.240;6.002;2022-07-29T00:22:19;4.20;;;2.53;;
25950;SDS011;13748;52.240;6.002;2022-07-29T00:24:47;7.00;;;2.77;;
25950;SDS011;13748;52.240;6.002;2022-07-29T00:27:15;3.07;;;2.77;;
25950;SDS011;13748;52.240;6.002;2022-07-29T00:29:43;3.83;;;2.67;;
25950;SDS011;13748;52.240;6.002;2022-07-29T00:32:10;3.43;;;2.70;;
25950;SDS011;13748;52.240;6.002;2022-07-29T00:34:37;3.10;;;2.70;;
25950;SDS011;13748;52.240;6.002;2022-07-29T00:37:23;4.90;;;2.80;;
25950;SDS011;13748;52.240;6.002;2022-07-29T00:39:50;5.60;;;2.70;;
25950;SDS011;13748;52.240;6.002;2022-07-29T00:42:17;5.57;;;2.97;;
25950;SDS011;13748;52.240;6.002;2022-07-29T00:44:44;3.37;;;2.20;;
25950;SDS011;13748;52.240;6.002;2022-07-29T00:47:11;5.17;;;2.60;;
25950;SDS011;13748;52.240;6.002;2022-07-29T00:49:42;4.07;;;2.47;;
25950;SDS011;13748;52.240;6.002;2022-07-29T00:52:09;4.77;;;2.90;;
25950;SDS011;13748;52.240;6.002;2022-07-29T00:54:42;6.77;;;3.27;;
25950;SDS011;13748;52.240;6.002;2022-07-29T00:57:10;9.70;;;3.30;;
25950;SDS011;13748;52.240;6.002;2022-07-29T00:59:38;5.07;;;3.03;;
25950;SDS011;13748;52.240;6.002;2022-07-29T01:02:05;3.97;;;2.80;;
25950;SDS011;13748;52.240;6.002;2022-07-29T01:04:32;6.27;;;3.30;;
25950;SDS011;13748;52.240;6.002;2022-07-29T01:07:03;4.07;;;2.77;;
25950;SDS011;13748;52.240;6.002;2022-07-29T01:09:32;4.90;;;3.03;;
25950;SDS011;13748;52.240;6.002;2022-07-29T01:12:12;5.67;;;2.97;;
25950;SDS011;13748;52.240;6.002;2022-07-29T01:14:42;3.73;;;2.73;;
25950;SDS011;13748;52.240;6.002;2022-07-29T01:17:11;9.43;;;3.63;;
25950;SDS011;13748;52.240;6.002;2022-07-29T01:20:14;3.43;;;3.13;;
25950;SDS011;13748;52.240;6.002;2022-07-29T01:23:08;4.43;;;3.10;;
25950;SDS011;13748;52.240;6.002;2022-07-29T01:26:12;6.90;;;3.43;;
25950;SDS011;13748;52.240;6.002;2022-07-29T01:29:04;3.93;;;3.30;;
25950;SDS011;13748;52.240;6.002;2022-07-29T01:37:46;3.93;;;3.27;;
25950;SDS011;13748;52.240;6.002;2022-07-29T01:40:40;4.47;;;3.17;;
25950;SDS011;13748;52.240;6.002;2022-07-29T01:43:18;5.50;;;3.20;;
25950;SDS011;13748;52.240;6.002;2022-07-29T01:45:52;7.10;;;3.07;;
25950;SDS011;13748;52.240;6.002;2022-07-29T01:48:27;6.70;;;3.73;;
25950;SDS011;13748;52.240;6.002;2022-07-29T01:51:14;8.83;;;3.37;;
25950;SDS011;13748;52.240;6.002;2022-07-29T01:56:18;5.77;;;3.70;;
25950;SDS011;13748;52.240;6.002;2022-07-29T01:58:50;4.77;;;3.13;;
25950;SDS011;13748;52.240;6.002;2022-07-29T02:01:18;6.77;;;3.30;;
25950;SDS011;13748;52.240;6.002;2022-07-29T02:03:47;6.57;;;3.33;;
25950;SDS011;13748;52.240;6.002;2022-07-29T02:06:16;3.90;;;3.10;;
25950;SDS011;13748;52.240;6.002;2022-07-29T02:08:45;5.43;;;3.30;;
25950;SDS011;13748;52.240;6.002;2022-07-29T02:11:16;4.83;;;3.40;;
25950;SDS011;13748;52.240;6.002;2022-07-29T02:13:43;6.80;;;3.23;;
25950;SDS011;13748;52.240;6.002;2022-07-29T02:19:00;7.60;;;3.67;;
25950;SDS011;13748;52.240;6.002;2022-07-29T02:21:29;4.90;;;3.57;;
25950;SDS011;13748;52.240;6.002;2022-07-29T02:23:59;3.80;;;3.23;;
25950;SDS011;13748;52.240;6.002;2022-07-29T02:26:30;6.70;;;4.00;;
25950;SDS011;13748;52.240;6.002;2022-07-29T02:28:59;6.00;;;3.43;;
25950;SDS011;13748;52.240;6.002;2022-07-29T02:31:30;4.13;;;3.20;;
25950;SDS011;13748;52.240;6.002;2022-07-29T02:34:01;5.93;;;3.70;;
25950;SDS011;13748;52.240;6.002;2022-07-29T02:36:29;4.47;;;3.20;;
25950;SDS011;13748;52.240;6.002;2022-07-29T02:38:57;5.40;;;3.00;;
25950;SDS011;13748;52.240;6.002;2022-07-29T02:44:13;4.47;;;2.93;;
25950;SDS011;13748;52.240;6.002;2022-07-29T02:54:58;3.30;;;3.00;;
25950;SDS011;13748;52.240;6.002;2022-07-29T02:57:30;4.10;;;3.70;;
25950;SDS011;13748;52.240;6.002;2022-07-29T03:00:20;6.17;;;3.33;;
25950;SDS011;13748;52.240;6.002;2022-07-29T03:02:50;4.43;;;3.53;;
25950;SDS011;13748;52.240;6.002;2022-07-29T03:05:20;5.30;;;3.37;;
25950;SDS011;13748;52.240;6.002;2022-07-29T03:08:01;5.73;;;3.70;;
25950;SDS011;13748;52.240;6.002;2022-07-29T03:10:30;4.97;;;3.67;;
25950;SDS011;13748;52.240;6.002;2022-07-29T03:12:58;7.43;;;3.30;;
25950;SDS011;13748;52.240;6.002;2022-07-29T03:15:26;4.93;;;3.43;;
25950;SDS011;13748;52.240;6.002;2022-07-29T03:17:53;5.93;;;3.77;;
25950;SDS011;13748;52.240;6.002;2022-07-29T03:20:22;5.70;;;3.37;;
25950;SDS011;13748;52.240;6.002;2022-07-29T03:22:49;5.03;;;3.70;;
25950;SDS011;13748;52.240;6.002;2022-07-29T03:25:17;6.00;;;4.00;;
25950;SDS011;13748;52.240;6.002;2022-07-29T03:27:46;5.10;;;3.90;;
25950;SDS011;13748;52.240;6.002;2022-07-29T03:30:14;5.30;;;3.80;;
25950;SDS011;13748;52.240;6.002;2022-07-29T03:32:47;7.57;;;4.20;;
25950;SDS011;13748;52.240;6.002;2022-07-29T03:35:17;6.13;;;3.90;;
25950;SDS011;13748;52.240;6.002;2022-07-29T03:37:46;6.80;;;4.17;;
25950;SDS011;13748;52.240;6.002;2022-07-29T03:40:16;4.80;;;3.63;;
25950;SDS011;13748;52.240;6.002;2022-07-29T03:42:48;9.93;;;4.40;;
25950;SDS011;13748;52.240;6.002;2022-07-29T03:45:19;5.77;;;4.20;;
25950;SDS011;13748;52.240;6.002;2022-07-29T03:47:52;5.00;;;3.83;;
25950;SDS011;13748;52.240;6.002;2022-07-29T03:50:33;4.57;;;3.63;;
25950;SDS011;13748;52.240;6.002;2022-07-29T03:53:01;11.07;;;4.20;;
25950;SDS011;13748;52.240;6.002;2022-07-29T03:55:29;5.10;;;4.03;;
25950;SDS011;13748;52.240;6.002;2022-07-29T03:57:59;5.33;;;3.70;;
25950;SDS011;13748;52.240;6.002;2022-07-29T04:00:28;4.97;;;3.57;;
25950;SDS011;13748;52.240;6.002;2022-07-29T04:02:56;5.57;;;3.50;;
25950;SDS011;13748;52.240;6.002;2022-07-29T04:05:23;7.13;;;4.37;;
25950;SDS011;13748;52.240;6.002;2022-07-29T04:07:50;6.27;;;4.07;;
25950;SDS011;13748;52.240;6.002;2022-07-29T04:10:17;5.60;;;3.90;;
25950;SDS011;13748;52.240;6.002;2022-07-29T04:12:56;7.13;;;4.37;;
25950;SDS011;13748;52.240;6.002;2022-07-29T04:15:23;5.83;;;4.43;;
25950;SDS011;13748;52.240;6.002;2022-07-29T04:17:51;7.50;;;4.30;;
25950;SDS011;13748;52.240;6.002;2022-07-29T04:20:21;5.93;;;4.20;;
25950;SDS011;13748;52.240;6.002;2022-07-29T04:22:47;8.13;;;4.57;;
25950;SDS011;13748;52.240;6.002;2022-07-29T04:25:14;7.77;;;4.30;;
25950;SDS011;13748;52.240;6.002;2022-07-29T04:27:45;5.70;;;4.43;;
25950;SDS011;13748;52.240;6.002;2022-07-29T04:30:27;6.30;;;4.50;;
25950;SDS011;13748;52.240;6.002;2022-07-29T04:32:55;6.83;;;5.00;;
25950;SDS011;13748;52.240;6.002;2022-07-29T04:35:22;5.20;;;4.70;;
25950;SDS011;13748;52.240;6.002;2022-07-29T04:37:50;6.27;;;4.63;;
25950;SDS011;13748;52.240;6.002;2022-07-29T04:40:17;5.27;;;4.43;;
25950;SDS011;13748;52.240;6.002;2022-07-29T04:42:44;7.43;;;4.30;;
25950;SDS011;13748;52.240;6.002;2022-07-29T04:45:13;6.53;;;4.40;;
25950;SDS011;13748;52.240;6.002;2022-07-29T04:47:41;6.13;;;4.77;;
25950;SDS011;13748;52.240;6.002;2022-07-29T04:50:09;8.17;;;4.67;;
25950;SDS011;13748;52.240;6.002;2022-07-29T04:52:36;8.77;;;5.23;;
25950;SDS011;13748;52.240;6.002;2022-07-29T04:55:04;9.73;;;5.03;;
25950;SDS011;13748;52.240;6.002;2022-07-29T04:57:32;8.63;;;4.90;;
25950;SDS011;13748;52.240;6.002;2022-07-29T05:00:10;8.80;;;5.40;;
25950;SDS011;13748;52.240;6.002;2022-07-29T05:02:40;8.97;;;5.30;;
25950;SDS011;13748;52.240;6.002;2022-07-29T05:05:07;7.80;;;5.03;;
25950;SDS011;13748;52.240;6.002;2022-07-29T05:07:34;11.27;;;5.90;;
25950;SDS011;13748;52.240;6.002;2022-07-29T05:10:04;10.40;;;6.13;;
25950;SDS011;13748;52.240;6.002;2022-07-29T05:15:02;6.30;;;5.40;;
25950;SDS011;13748;52.240;6.002;2022-07-29T05:17:32;8.60;;;5.33;;
25950;SDS011;13748;52.240;6.002;2022-07-29T05:20:01;10.73;;;5.67;;
25950;SDS011;13748;52.240;6.002;2022-07-29T05:22:29;8.60;;;6.33;;
25950;SDS011;13748;52.240;6.002;2022-07-29T05:25:00;7.07;;;5.83;;
25950;SDS011;13748;52.240;6.002;2022-07-29T05:27:34;7.80;;;6.73;;
25950;SDS011;13748;52.240;6.002;2022-07-29T05:30:06;9.60;;;6.33;;
25950;SDS011;13748;52.240;6.002;2022-07-29T05:32:39;7.40;;;5.67;;
25950;SDS011;13748;52.240;6.002;2022-07-29T05:35:07;11.10;;;5.60;;
25950;SDS011;13748;52.240;6.002;2022-07-29T05:37:34;6.47;;;5.77;;
25950;SDS011;13748;52.240;6.002;2022-07-29T05:40:02;8.07;;;6.27;;
25950;SDS011;13748;52.240;6.002;2022-07-29T05:42:30;11.60;;;5.53;;
25950;SDS011;13748;52.240;6.002;2022-07-29T05:44:57;10.63;;;6.60;;
25950;SDS011;13748;52.240;6.002;2022-07-29T05:47:24;8.63;;;6.33;;
25950;SDS011;13748;52.240;6.002;2022-07-29T05:49:51;6.87;;;5.50;;
25950;SDS011;13748;52.240;6.002;2022-07-29T05:52:18;9.33;;;6.77;;
25950;SDS011;13748;52.240;6.002;2022-07-29T05:54:46;12.50;;;7.80;;
25950;SDS011;13748;52.240;6.002;2022-07-29T05:57:20;7.80;;;5.97;;
25950;SDS011;13748;52.240;6.002;2022-07-29T05:59:51;9.03;;;7.30;;
25950;SDS011;13748;52.240;6.002;2022-07-29T06:02:18;13.13;;;7.60;;
25950;SDS011;13748;52.240;6.002;2022-07-29T06:04:45;10.13;;;7.20;;
25950;SDS011;13748;52.240;6.002;2022-07-29T06:07:15;9.37;;;6.90;;
25950;SDS011;13748;52.240;6.002;2022-07-29T06:09:45;8.80;;;6.23;;
25950;SDS011;13748;52.240;6.002;2022-07-29T06:12:12;8.63;;;6.33;;
25950;SDS011;13748;52.240;6.002;2022-07-29T06:14:45;9.57;;;6.07;;
25950;SDS011;13748;52.240;6.002;2022-07-29T06:17:18;7.50;;;5.37;;
25950;SDS011;13748;52.240;6.002;2022-07-29T06:19:46;10.00;;;5.63;;
25950;SDS011;13748;52.240;6.002;2022-07-29T06:22:14;8.17;;;5.30;;
25950;SDS011;13748;52.240;6.002;2022-07-29T06:24:42;8.67;;;5.60;;
25950;SDS011;13748;52.240;6.002;2022-07-29T06:27:12;6.50;;;5.20;;
25950;SDS011;13748;52.240;6.002;2022-07-29T06:29:40;6.33;;;4.97;;
25950;SDS011;13748;52.240;6.002;2022-07-29T06:32:06;7.40;;;5.37;;
25950;SDS011;13748;52.240;6.002;2022-07-29T06:34:35;8.50;;;4.93;;
25950;SDS011;13748;52.240;6.002;2022-07-29T06:37:06;7.57;;;4.87;;
25950;SDS011;13748;52.240;6.002;2022-07-29T06:39:40;11.43;;;5.90;;
25950;SDS011;13748;52.240;6.002;2022-07-29T06:42:07;8.10;;;5.63;;
25950;SDS011;13748;52.240;6.002;2022-07-29T06:44:34;6.80;;;5.57;;
25950;SDS011;13748;52.240;6.002;2022-07-29T06:47:01;6.57;;;4.20;;
25950;SDS011;13748;52.240;6.002;2022-07-29T06:49:29;7.43;;;5.50;;
25950;SDS011;13748;52.240;6.002;2022-07-29T06:51:58;7.23;;;4.97;;
25950;SDS011;13748;52.240;6.002;2022-07-29T06:54:25;7.37;;;4.63;;
25950;SDS011;13748;52.240;6.002;2022-07-29T06:56:52;7.03;;;4.77;;
25950;SDS011;13748;52.240;6.002;2022-07-29T06:59:20;7.03;;;4.80;;
25950;SDS011;13748;52.240;6.002;2022-07-29T07:01:58;7.97;;;4.70;;
25950;SDS011;13748;52.240;6.002;2022-07-29T07:04:25;8.77;;;5.10;;
25950;SDS011;13748;52.240;6.002;2022-07-29T07:06:52;5.95;;;4.78;;
25950;SDS011;13748;52.240;6.002;2022-07-29T07:09:21;8.50;;;4.78;;
25950;SDS011;13748;52.240;6.002;2022-07-29T07:11:48;6.55;;;5.32;;
25950;SDS011;13748;52.240;6.002;2022-07-29T07:14:17;7.88;;;4.53;;
25950;SDS011;13748;52.240;6.002;2022-07-29T07:16:45;6.10;;;5.40;;
25950;SDS011;13748;52.240;6.002;2022-07-29T07:19:15;8.45;;;4.25;;
25950;SDS011;13748;52.240;6.002;2022-07-29T07:21:44;8.63;;;5.72;;
25950;SDS011;13748;52.240;6.002;2022-07-29T07:24:11;8.07;;;4.43;;
25950;SDS011;13748;52.240;6.002;2022-07-29T07:26:42;5.88;;;4.38;;
25950;SDS011;13748;52.240;6.002;2022-07-29T07:29:11;4.78;;;4.32;;
25950;SDS011;13748;52.240;6.002;2022-07-29T07:31:38;7.00;;;4.82;;
25950;SDS011;13748;52.240;6.002;2022-07-29T07:34:05;6.50;;;4.55;;
25950;SDS011;13748;52.240;6.002;2022-07-29T07:36:32;4.80;;;4.15;;
25950;SDS011;13748;52.240;6.002;2022-07-29T07:38:59;6.80;;;4.35;;
25950;SDS011;13748;52.240;6.002;2022-07-29T07:41:29;6.13;;;4.13;;
25950;SDS011;13748;52.240;6.002;2022-07-29T07:43:57;7.20;;;4.07;;
25950;SDS011;13748;52.240;6.002;2022-07-29T07:46:25;7.30;;;4.43;;
25950;SDS011;13748;52.240;6.002;2022-07-29T07:48:52;6.53;;;4.28;;
25950;SDS011;13748;52.240;6.002;2022-07-29T07:51:22;6.45;;;4.28;;
25950;SDS011;13748;52.240;6.002;2022-07-29T07:53:51;6.97;;;4.10;;
25950;SDS011;13748;52.240;6.002;2022-07-29T07:56:22;6.15;;;4.32;;
25950;SDS011;13748;52.240;6.002;2022-07-29T07:58:49;6.07;;;3.83;;
25950;SDS011;13748;52.240;6.002;2022-07-29T08:01:16;6.47;;;4.25;;
25950;SDS011;13748;52.240;6.002;2022-07-29T08:03:46;6.78;;;4.20;;
25950;SDS011;13748;52.240;6.002;2022-07-29T08:06:14;8.05;;;5.07;;
25950;SDS011;13748;52.240;6.002;2022-07-29T08:08:41;5.63;;;4.25;;
25950;SDS011;13748;52.240;6.002;2022-07-29T08:11:09;5.80;;;3.83;;
25950;SDS011;13748;52.240;6.002;2022-07-29T08:13:36;8.70;;;3.78;;
25950;SDS011;13748;52.240;6.002;2022-07-29T08:16:04;6.07;;;3.70;;
25950;SDS011;13748;52.240;6.002;2022-07-29T08:18:39;6.65;;;4.18;;
25950;SDS011;13748;52.240;6.002;2022-07-29T08:21:09;5.57;;;4.35;;
25950;SDS011;13748;52.240;6.002;2022-07-29T08:23:40;7.53;;;4.20;;
25950;SDS011;13748;52.240;6.002;2022-07-29T08:26:27;6.55;;;3.63;;
25950;SDS011;13748;52.240;6.002;2022-07-29T08:28:54;6.10;;;4.10;;
25950;SDS011;13748;52.240;6.002;2022-07-29T08:31:21;5.45;;;4.20;;
25950;SDS011;13748;52.240;6.002;2022-07-29T08:33:48;7.15;;;3.45;;
25950;SDS011;13748;52.240;6.002;2022-07-29T08:36:15;8.63;;;4.50;;
25950;SDS011;13748;52.240;6.002;2022-07-29T08:38:42;7.18;;;4.45;;
25950;SDS011;13748;52.240;6.002;2022-07-29T08:41:09;5.72;;;3.65;;
25950;SDS011;13748;52.240;6.002;2022-07-29T08:43:39;7.88;;;4.40;;
25950;SDS011;13748;52.240;6.002;2022-07-29T08:46:07;6.72;;;4.00;;
25950;SDS011;13748;52.240;6.002;2022-07-29T08:48:34;7.72;;;4.07;;
25950;SDS011;13748;52.240;6.002;2022-07-29T08:51:02;6.45;;;4.47;;
25950;SDS011;13748;52.240;6.002;2022-07-29T08:53:31;5.30;;;3.65;;
25950;SDS011;13748;52.240;6.002;2022-07-29T08:55:59;7.35;;;3.78;;
25950;SDS011;13748;52.240;6.002;2022-07-29T08:58:31;5.47;;;4.00;;
25950;SDS011;13748;52.240;6.002;2022-07-29T09:01:03;8.55;;;4.20;;
25950;SDS011;13748;52.240;6.002;2022-07-29T09:03:38;6.40;;;4.22;;
25950;SDS011;13748;52.240;6.002;2022-07-29T09:06:12;10.20;;;4.32;;
25950;SDS011;13748;52.240;6.002;2022-07-29T09:08:43;6.95;;;3.95;;
25950;SDS011;13748;52.240;6.002;2022-07-29T09:11:11;7.32;;;4.45;;
25950;SDS011;13748;52.240;6.002;2022-07-29T09:13:40;5.50;;;4.18;;
25950;SDS011;13748;52.240;6.002;2022-07-29T09:16:07;7.20;;;4.60;;
25950;SDS011;13748;52.240;6.002;2022-07-29T09:18:36;5.60;;;3.92;;
25950;SDS011;13748;52.240;6.002;2022-07-29T09:21:05;9.07;;;4.82;;
25950;SDS011;13748;52.240;6.002;2022-07-29T09:26:30;7.43;;;4.85;;
25950;SDS011;13748;52.240;6.002;2022-07-29T09:28:58;6.50;;;4.63;;
25950;SDS011;13748;52.240;6.002;2022-07-29T09:31:35;5.55;;;4.68;;
25950;SDS011;13748;52.240;6.002;2022-07-29T09:34:05;9.02;;;4.65;;
25950;SDS011;13748;52.240;6.002;2022-07-29T09:36:40;7.25;;;4.60;;
25950;SDS011;13748;52.240;6.002;2022-07-29T09:39:09;9.50;;;4.70;;
25950;SDS011;13748;52.240;6.002;2022-07-29T09:44:16;7.25;;;3.88;;
25950;SDS011;13748;52.240;6.002;2022-07-29T09:49:26;4.97;;;3.83;;
25950;SDS011;13748;52.240;6.002;2022-07-29T09:52:03;5.53;;;4.50;;
25950;SDS011;13748;52.240;6.002;2022-07-29T09:54:37;5.60;;;4.25;;
25950;SDS011;13748;52.240;6.002;2022-07-29T09:57:07;6.20;;;4.15;;
25950;SDS011;13748;52.240;6.002;2022-07-29T09:59:39;7.55;;;4.53;;
25950;SDS011;13748;52.240;6.002;2022-07-29T10:02:21;6.25;;;4.50;;
25950;SDS011;13748;52.240;6.002;2022-07-29T10:04:55;6.10;;;4.63;;
25950;SDS011;13748;52.240;6.002;2022-07-29T10:07:22;8.68;;;4.82;;
25950;SDS011;13748;52.240;6.002;2022-07-29T10:09:53;6.63;;;4.65;;
25950;SDS011;13748;52.240;6.002;2022-07-29T10:12:23;7.55;;;4.90;;
25950;SDS011;13748;52.240;6.002;2022-07-29T10:14:51;6.05;;;4.57;;
25950;SDS011;13748;52.240;6.002;2022-07-29T10:17:20;6.63;;;4.50;;
25950;SDS011;13748;52.240;6.002;2022-07-29T10:19:50;9.25;;;4.68;;
25950;SDS011;13748;52.240;6.002;2022-07-29T10:22:27;6.32;;;4.72;;
25950;SDS011;13748;52.240;6.002;2022-07-29T10:25:19;7.72;;;4.60;;
25950;SDS011;13748;52.240;6.002;2022-07-29T10:27:47;6.53;;;4.32;;
25950;SDS011;13748;52.240;6.002;2022-07-29T10:39:05;7.40;;;4.63;;
25950;SDS011;13748;52.240;6.002;2022-07-29T10:44:58;6.40;;;4.40;;
25950;SDS011;13748;52.240;6.002;2022-07-29T10:47:30;5.50;;;4.68;;
25950;SDS011;13748;52.240;6.002;2022-07-29T10:50:03;5.85;;;4.25;;
25950;SDS011;13748;52.240;6.002;2022-07-29T10:55:38;8.98;;;5.40;;
25950;SDS011;13748;52.240;6.002;2022-07-29T11:00:51;7.00;;;4.55;;
25950;SDS011;13748;52.240;6.002;2022-07-29T11:06:18;7.93;;;4.35;;
25950;SDS011;13748;52.240;6.002;2022-07-29T11:12:01;6.22;;;4.55;;
25950;SDS011;13748;52.240;6.002;2022-07-29T11:23:17;5.88;;;4.65;;
25950;SDS011;13748;52.240;6.002;2022-07-29T11:29:05;7.55;;;4.68;;
25950;SDS011;13748;52.240;6.002;2022-07-29T11:31:44;6.50;;;4.07;;
25950;SDS011;13748;52.240;6.002;2022-07-29T11:34:19;5.93;;;4.18;;
25950;SDS011;13748;52.240;6.002;2022-07-29T11:39:40;7.13;;;4.10;;
25950;SDS011;13748;52.240;6.002;2022-07-29T11:47:48;7.50;;;4.00;;
25950;SDS011;13748;52.240;6.002;2022-07-29T11:50:27;5.03;;;4.47;;
25950;SDS011;13748;52.240;6.002;2022-07-29T11:53:46;8.52;;;3.88;;
25950;SDS011;13748;52.240;6.002;2022-07-29T11:56:23;5.00;;;3.95;;
25950;SDS011;13748;52.240;6.002;2022-07-29T11:59:23;5.85;;;3.65;;
25950;SDS011;13748;52.240;6.002;2022-07-29T12:02:05;8.77;;;3.67;;
25950;SDS011;13748;52.240;6.002;2022-07-29T12:04:57;8.85;;;3.50;;
25950;SDS011;13748;52.240;6.002;2022-07-29T12:11:18;6.25;;;3.95;;
25950;SDS011;13748;52.240;6.002;2022-07-29T12:13:55;4.78;;;3.35;;
25950;SDS011;13748;52.240;6.002;2022-07-29T12:16:33;5.65;;;2.95;;
25950;SDS011;13748;52.240;6.002;2022-07-29T12:19:15;4.97;;;3.33;;
25950;SDS011;13748;52.240;6.002;2022-07-29T12:21:54;7.85;;;4.45;;
25950;SDS011;13748;52.240;6.002;2022-07-29T12:24:28;7.10;;;4.13;;
25950;SDS011;13748;52.240;6.002;2022-07-29T12:27:21;7.00;;;3.78;;
25950;SDS011;13748;52.240;6.002;2022-07-29T12:29:57;5.82;;;3.92;;
25950;SDS011;13748;52.240;6.002;2022-07-29T12:32:40;7.40;;;2.97;;
25950;SDS011;13748;52.240;6.002;2022-07-29T12:35:11;8.27;;;3.92;;
25950;SDS011;13748;52.240;6.002;2022-07-29T12:37:44;5.60;;;3.40;;
25950;SDS011;13748;52.240;6.002;2022-07-29T12:40:20;7.72;;;3.47;;
25950;SDS011;13748;52.240;6.002;2022-07-29T12:45:36;6.70;;;2.72;;
25950;SDS011;13748;52.240;6.002;2022-07-29T12:48:07;7.57;;;2.90;;
25950;SDS011;13748;52.240;6.002;2022-07-29T12:50:35;5.95;;;3.13;;
25950;SDS011;13748;52.240;6.002;2022-07-29T12:53:20;5.43;;;3.13;;
25950;SDS011;13748;52.240;6.002;2022-07-29T12:55:49;5.07;;;3.35;;
25950;SDS011;13748;52.240;6.002;2022-07-29T12:58:33;10.00;;;3.80;;
25950;SDS011;13748;52.240;6.002;2022-07-29T13:01:17;4.68;;;3.30;;
25950;SDS011;13748;52.240;6.002;2022-07-29T13:06:38;6.20;;;3.35;;
25950;SDS011;13748;52.240;6.002;2022-07-29T13:09:08;8.02;;;3.75;;
25950;SDS011;13748;52.240;6.002;2022-07-29T13:11:39;6.80;;;3.65;;
25950;SDS011;13748;52.240;6.002;2022-07-29T13:14:12;5.95;;;3.50;;
25950;SDS011;13748;52.240;6.002;2022-07-29T13:16:59;6.78;;;3.53;;
25950;SDS011;13748;52.240;6.002;2022-07-29T13:19:33;6.43;;;3.78;;
25950;SDS011;13748;52.240;6.002;2022-07-29T13:22:10;6.38;;;3.70;;
25950;SDS011;13748;52.240;6.002;2022-07-29T13:25:12;7.90;;;3.85;;
25950;SDS011;13748;52.240;6.002;2022-07-29T13:27:35;6.43;;;3.20;;
25950;SDS011;13748;52.240;6.002;2022-07-29T13:30:04;7.55;;;2.92;;
25950;SDS011;13748;52.240;6.002;2022-07-29T13:32:33;5.90;;;2.95;;
25950;SDS011;13748;52.240;6.002;2022-07-29T13:35:02;7.43;;;2.90;;
25950;SDS011;13748;52.240;6.002;2022-07-29T13:37:33;7.20;;;3.35;;
25950;SDS011;13748;52.240;6.002;2022-07-29T13:40:04;6.18;;;3.20;;
25950;SDS011;13748;52.240;6.002;2022-07-29T13:42:32;6.55;;;3.15;;
25950;SDS011;13748;52.240;6.002;2022-07-29T13:44:59;4.20;;;3.20;;
25950;SDS011;13748;52.240;6.002;2022-07-29T13:47:27;3.92;;;2.50;;
25950;SDS011;13748;52.240;6.002;2022-07-29T13:50:01;5.38;;;3.00;;
25950;SDS011;13748;52.240;6.002;2022-07-29T13:52:33;5.90;;;2.78;;
25950;SDS011;13748;52.240;6.002;2022-07-29T13:55:01;12.35;;;3.45;;
25950;SDS011;13748;52.240;6.002;2022-07-29T13:57:34;4.20;;;2.28;;
25950;SDS011;13748;52.240;6.002;2022-07-29T14:00:01;24.90;;;3.78;;
25950;SDS011;13748;52.240;6.002;2022-07-29T14:02:29;5.80;;;3.38;;
25950;SDS011;13748;52.240;6.002;2022-07-29T14:04:56;5.55;;;2.90;;
25950;SDS011;13748;52.240;6.002;2022-07-29T14:07:23;186.18;;;15.90;;
25950;SDS011;13748;52.240;6.002;2022-07-29T14:09:50;8.80;;;2.92;;
25950;SDS011;13748;52.240;6.002;2022-07-29T14:12:17;5.05;;;2.85;;
25950;SDS011;13748;52.240;6.002;2022-07-29T14:14:45;6.68;;;2.60;;
25950;SDS011;13748;52.240;6.002;2022-07-29T14:17:12;7.20;;;2.72;;
25950;SDS011;13748;52.240;6.002;2022-07-29T14:19:42;4.25;;;2.22;;
25950;SDS011;13748;52.240;6.002;2022-07-29T14:22:09;6.78;;;2.70;;
25950;SDS011;13748;52.240;6.002;2022-07-29T14:24:39;39.92;;;4.63;;
25950;SDS011;13748;52.240;6.002;2022-07-29T14:27:09;8.13;;;2.90;;
25950;SDS011;13748;52.240;6.002;2022-07-29T14:29:36;4.07;;;2.45;;
25950;SDS011;13748;52.240;6.002;2022-07-29T14:32:05;6.57;;;2.70;;
25950;SDS011;13748;52.240;6.002;2022-07-29T14:34:37;5.20;;;2.63;;
25950;SDS011;13748;52.240;6.002;2022-07-29T14:37:04;7.10;;;2.55;;
25950;SDS011;13748;52.240;6.002;2022-07-29T14:39:32;6.18;;;2.60;;
25950;SDS011;13748;52.240;6.002;2022-07-29T14:42:08;7.00;;;2.70;;
25950;SDS011;13748;52.240;6.002;2022-07-29T14:44:38;6.30;;;2.60;;
25950;SDS011;13748;52.240;6.002;2022-07-29T14:47:06;4.93;;;2.50;;
25950;SDS011;13748;52.240;6.002;2022-07-29T14:49:34;4.72;;;2.25;;
25950;SDS011;13748;52.240;6.002;2022-07-29T14:52:01;5.28;;;2.40;;
25950;SDS011;13748;52.240;6.002;2022-07-29T14:54:28;4.85;;;2.35;;
25950;SDS011;13748;52.240;6.002;2022-07-29T14:56:55;3.88;;;2.72;;
25950;SDS011;13748;52.240;6.002;2022-07-29T14:59:25;6.95;;;2.58;;
25950;SDS011;13748;52.240;6.002;2022-07-29T15:01:52;6.35;;;2.38;;
25950;SDS011;13748;52.240;6.002;2022-07-29T15:04:19;4.47;;;2.10;;
25950;SDS011;13748;52.240;6.002;2022-07-29T15:06:46;6.15;;;2.28;;
25950;SDS011;13748;52.240;6.002;2022-07-29T15:09:14;3.17;;;1.90;;
25950;SDS011;13748;52.240;6.002;2022-07-29T15:11:43;4.80;;;1.83;;
25950;SDS011;13748;52.240;6.002;2022-07-29T15:14:10;4.45;;;2.40;;
25950;SDS011;13748;52.240;6.002;2022-07-29T15:16:37;5.22;;;2.30;;
25950;SDS011;13748;52.240;6.002;2022-07-29T15:19:11;6.88;;;2.33;;
25950;SDS011;13748;52.240;6.002;2022-07-29T15:21:38;5.15;;;2.13;;
25950;SDS011;13748;52.240;6.002;2022-07-29T15:24:14;4.85;;;2.10;;
25950;SDS011;13748;52.240;6.002;2022-07-29T15:26:46;5.07;;;2.33;;
25950;SDS011;13748;52.240;6.002;2022-07-29T15:29:14;7.18;;;1.98;;
25950;SDS011;13748;52.240;6.002;2022-07-29T15:31:42;5.88;;;2.22;;
25950;SDS011;13748;52.240;6.002;2022-07-29T15:34:09;3.58;;;1.80;;
25950;SDS011;13748;52.240;6.002;2022-07-29T15:36:36;3.15;;;1.80;;
25950;SDS011;13748;52.240;6.002;2022-07-29T15:39:19;4.88;;;1.80;;
25950;SDS011;13748;52.240;6.002;2022-07-29T15:41:47;5.47;;;2.28;;
25950;SDS011;13748;52.240;6.002;2022-07-29T15:44:15;4.72;;;1.70;;
25950;SDS011;13748;52.240;6.002;2022-07-29T15:46:42;4.45;;;2.10;;
25950;SDS011;13748;52.240;6.002;2022-07-29T15:52:18;3.38;;;1.92;;
25950;SDS011;13748;52.240;6.002;2022-07-29T15:54:51;3.00;;;2.03;;
25950;SDS011;13748;52.240;6.002;2022-07-29T15:57:20;4.78;;;2.33;;
25950;SDS011;13748;52.240;6.002;2022-07-29T15:59:47;4.07;;;2.00;;
25950;SDS011;13748;52.240;6.002;2022-07-29T16:02:14;5.15;;;2.00;;
25950;SDS011;13748;52.240;6.002;2022-07-29T16:04:41;5.63;;;2.67;;
25950;SDS011;13748;52.240;6.002;2022-07-29T16:07:08;5.57;;;2.10;;
25950;SDS011;13748;52.240;6.002;2022-07-29T16:09:36;5.53;;;2.03;;
25950;SDS011;13748;52.240;6.002;2022-07-29T16:12:08;5.43;;;1.85;;
25950;SDS011;13748;52.240;6.002;2022-07-29T16:14:41;4.50;;;2.10;;
25950;SDS011;13748;52.240;6.002;2022-07-29T16:17:10;4.88;;;2.15;;
25950;SDS011;13748;52.240;6.002;2022-07-29T16:19:40;3.35;;;2.03;;
25950;SDS011;13748;52.240;6.002;2022-07-29T16:22:08;3.60;;;2.10;;
25950;SDS011;13748;52.240;6.002;2022-07-29T16:24:36;4.78;;;2.40;;
25950;SDS011;13748;52.240;6.002;2022-07-29T16:27:04;4.82;;;2.20;;
25950;SDS011;13748;52.240;6.002;2022-07-29T16:29:30;2.92;;;1.88;;
25950;SDS011;13748;52.240;6.002;2022-07-29T16:31:57;6.40;;;2.45;;
25950;SDS011;13748;52.240;6.002;2022-07-29T16:34:24;5.28;;;2.50;;
25950;SDS011;13748;52.240;6.002;2022-07-29T16:36:51;6.53;;;2.90;;
25950;SDS011;13748;52.240;6.002;2022-07-29T16:39:18;4.22;;;2.40;;
25950;SDS011;13748;52.240;6.002;2022-07-29T16:41:45;6.38;;;2.15;;